createdAt,value
2022-11-13T00:01:25.031Z,9.34
2022-11-13T00:03:52.115Z,9.43
2022-11-13T00:06:20.225Z,9.53
2022-11-13T00:08:48.059Z,9.37
2022-11-13T00:11:20.115Z,9.47
2022-11-13T00:13:49.137Z,9.46
2022-11-13T00:16:20.953Z,9.47
2022-11-13T00:18:48.436Z,9.52
2022-11-13T00:21:25.429Z,9.56
2022-11-13T00:23:53.813Z,9.63
2022-11-13T00:26:31.049Z,9.65
2022-11-13T00:29:01.808Z,9.54
2022-11-13T00:31:30.101Z,9.63
2022-11-13T00:34:19.507Z,9.68
2022-11-13T00:36:46.840Z,9.67
2022-11-13T00:39:13.936Z,9.57
2022-11-13T00:41:40.979Z,9.55
2022-11-13T00:44:08.274Z,9.51
2022-11-13T00:46:38.073Z,9.46
2022-11-13T00:49:05.338Z,9.46
2022-11-13T00:51:32.777Z,9.48
2022-11-13T00:53:59.752Z,9.56
2022-11-13T00:56:27.157Z,9.52
2022-11-13T00:58:54.129Z,9.49
2022-11-13T01:01:22.052Z,9.54
2022-11-13T01:03:49.276Z,9.58
2022-11-13T01:06:27.037Z,9.44
2022-11-13T01:08:59.877Z,9.58
2022-11-13T01:11:30.054Z,9.69
2022-11-13T01:13:57.991Z,9.68
2022-11-13T01:16:27.835Z,9.65
2022-11-13T01:18:56.067Z,9.60
2022-11-13T01:21:27.358Z,9.59
2022-11-13T01:23:56.399Z,9.63
2022-11-13T01:26:29.997Z,9.69
2022-11-13T01:28:59.390Z,9.74
2022-11-13T01:31:31.115Z,9.76
2022-11-13T01:33:58.906Z,9.71
2022-11-13T01:36:28.658Z,9.76
2022-11-13T01:38:56.194Z,9.69
2022-11-13T01:41:33.607Z,9.72
2022-11-13T01:44:01.493Z,9.75
2022-11-13T01:46:35.124Z,9.76
2022-11-13T01:49:15.931Z,9.76
2022-11-13T01:52:40.935Z,9.63
2022-11-13T01:55:16.078Z,9.74
2022-11-13T01:57:43.169Z,9.80
2022-11-13T02:00:12.623Z,9.84
2022-11-13T02:02:39.718Z,9.89
2022-11-13T02:05:09.146Z,9.90
2022-11-13T02:07:36.143Z,9.92
2022-11-13T02:10:03.313Z,9.95
2022-11-13T02:12:42.360Z,10.00
2022-11-13T02:15:10.825Z,9.96
2022-11-13T02:17:50.364Z,9.85
2022-11-13T02:20:29.559Z,9.94
2022-11-13T02:23:30.000Z,9.99
2022-11-13T02:25:57.614Z,10.05
2022-11-13T02:28:24.633Z,10.02
2022-11-13T02:30:51.708Z,10.02
2022-11-13T02:33:33.064Z,9.91
2022-11-13T02:36:00.510Z,9.99
2022-11-13T02:38:28.038Z,10.04
2022-11-13T02:40:55.377Z,10.07
2022-11-13T02:43:22.384Z,10.13
2022-11-13T02:45:49.407Z,9.99
2022-11-13T02:48:16.427Z,10.02
2022-11-13T02:50:43.809Z,10.05
2022-11-13T02:53:11.024Z,9.80
2022-11-13T02:55:38.261Z,10.01
2022-11-13T02:58:05.374Z,10.02
2022-11-13T03:00:32.603Z,10.02
2022-11-13T03:02:59.667Z,10.09
2022-11-13T03:05:26.690Z,10.15
2022-11-13T03:07:53.876Z,10.07
2022-11-13T03:10:20.863Z,10.09
2022-11-13T03:12:47.864Z,10.09
2022-11-13T03:15:14.956Z,10.04
2022-11-13T03:17:41.976Z,10.12
2022-11-13T03:20:09.539Z,10.12
2022-11-13T03:22:36.547Z,10.02
2022-11-13T03:25:09.908Z,10.06
2022-11-13T03:27:37.801Z,10.11
2022-11-13T03:30:06.189Z,10.14
2022-11-13T03:32:33.176Z,10.09
2022-11-13T03:35:00.145Z,9.94
2022-11-13T03:37:27.192Z,9.91
2022-11-13T03:39:54.146Z,9.98
2022-11-13T03:42:21.099Z,9.80
2022-11-13T03:44:48.157Z,9.91
2022-11-13T03:47:15.642Z,9.97
2022-11-13T03:49:42.625Z,10.04
2022-11-13T03:52:09.848Z,10.12
2022-11-13T03:54:36.797Z,10.08
2022-11-13T03:57:04.192Z,10.08
2022-11-13T03:59:31.177Z,10.06
2022-11-13T04:01:58.174Z,10.13
2022-11-13T04:04:25.186Z,10.16
2022-11-13T04:06:52.284Z,10.18
2022-11-13T04:09:19.360Z,10.13
2022-11-13T04:11:46.335Z,10.10
2022-11-13T04:14:13.424Z,10.02
2022-11-13T04:16:40.553Z,9.83
2022-11-13T04:19:07.563Z,9.82
2022-11-13T04:21:34.681Z,9.83
2022-11-13T04:24:01.699Z,9.94
2022-11-13T04:26:28.721Z,9.84
2022-11-13T04:28:55.733Z,9.85
2022-11-13T04:31:22.928Z,9.97
2022-11-13T04:33:49.929Z,10.09
2022-11-13T04:36:17.015Z,9.94
2022-11-13T04:38:44.002Z,9.91
2022-11-13T04:41:32.406Z,9.73
2022-11-13T04:43:59.487Z,9.76
2022-11-13T04:46:26.512Z,9.95
2022-11-13T04:48:53.483Z,9.82
2022-11-13T04:51:20.554Z,9.85
2022-11-13T04:53:47.640Z,9.87
2022-11-13T04:56:14.618Z,9.91
2022-11-13T04:58:41.565Z,9.91
2022-11-13T05:01:08.530Z,10.00
2022-11-13T05:03:35.723Z,9.89
2022-11-13T05:06:08.625Z,9.87
2022-11-13T05:08:36.331Z,9.81
2022-11-13T05:11:04.217Z,9.86
2022-11-13T05:13:36.427Z,10.02
2022-11-13T05:16:08.469Z,10.02
2022-11-13T05:18:37.339Z,9.94
2022-11-13T05:21:07.580Z,9.90
2022-11-13T05:23:35.409Z,9.87
2022-11-13T05:26:13.151Z,9.95
2022-11-13T05:28:40.512Z,9.70
2022-11-13T05:31:18.054Z,9.78
2022-11-13T05:33:49.648Z,9.96
2022-11-13T05:36:19.527Z,10.03
2022-11-13T05:38:46.911Z,9.76
2022-11-13T05:41:22.388Z,9.80
2022-11-13T05:43:53.738Z,9.95
2022-11-13T05:46:28.221Z,10.02
2022-11-13T05:48:59.386Z,9.94
2022-11-13T05:51:31.509Z,9.95
2022-11-13T05:53:59.577Z,9.94
2022-11-13T05:56:34.647Z,10.01
2022-11-13T05:59:03.565Z,10.08
2022-11-13T06:01:38.956Z,9.95
2022-11-13T06:04:07.993Z,9.87
2022-11-13T06:06:35.371Z,9.84
2022-11-13T06:09:06.127Z,9.96
2022-11-13T06:11:33.227Z,10.04
2022-11-13T06:14:00.887Z,10.07
2022-11-13T06:16:34.846Z,9.97
2022-11-13T06:19:05.787Z,9.89
2022-11-13T06:21:36.602Z,9.88
2022-11-13T06:24:04.021Z,9.90
2022-11-13T06:26:35.623Z,9.80
2022-11-13T06:29:07.214Z,9.70
2022-11-13T06:31:36.808Z,9.74
2022-11-13T06:34:05.452Z,9.94
2022-11-13T06:36:37.150Z,9.83
2022-11-13T06:39:09.516Z,9.79
2022-11-13T06:41:39.349Z,9.92
2022-11-13T06:44:06.450Z,9.92
2022-11-13T06:46:33.547Z,9.71
2022-11-13T06:49:00.665Z,9.83
2022-11-13T06:51:31.764Z,9.86
2022-11-13T06:53:58.850Z,9.84
2022-11-13T06:56:26.677Z,9.96
2022-11-13T06:58:56.014Z,10.01
2022-11-13T07:01:26.143Z,9.96
2022-11-13T07:03:53.969Z,9.82
2022-11-13T07:06:24.349Z,9.76
2022-11-13T07:08:51.867Z,9.87
2022-11-13T07:11:22.421Z,9.87
2022-11-13T07:13:50.509Z,9.71
2022-11-13T07:16:18.589Z,9.89
2022-11-13T07:18:53.530Z,9.85
2022-11-13T07:21:22.266Z,9.92
2022-11-13T07:23:50.821Z,9.74
2022-11-13T07:26:19.206Z,9.80
2022-11-13T07:28:47.730Z,9.68
2022-11-13T07:31:17.453Z,9.70
2022-11-13T07:33:44.541Z,9.73
2022-11-13T07:36:11.946Z,9.82
2022-11-13T07:38:38.971Z,9.95
2022-11-13T07:41:06.619Z,10.01
2022-11-13T07:43:35.427Z,10.02
2022-11-13T07:46:02.743Z,9.81
2022-11-13T07:48:30.524Z,9.86
2022-11-13T07:51:02.434Z,9.98
2022-11-13T07:53:30.525Z,9.93
2022-11-13T07:56:02.719Z,10.02
2022-11-13T07:58:31.039Z,10.03
2022-11-13T08:01:04.803Z,9.99
2022-11-13T08:03:32.769Z,10.10
2022-11-13T08:06:07.182Z,10.00
2022-11-13T08:08:35.215Z,9.96
2022-11-13T08:11:08.814Z,9.89
2022-11-13T08:13:36.988Z,9.87
2022-11-13T08:16:05.302Z,9.98
2022-11-13T08:18:32.846Z,10.08
2022-11-13T08:21:05.157Z,9.97
2022-11-13T08:23:33.430Z,9.97
2022-11-13T08:26:06.480Z,9.98
2022-11-13T08:28:35.625Z,10.11
2022-11-13T08:31:03.754Z,10.07
2022-11-13T08:33:32.461Z,10.19
2022-11-13T08:36:00.792Z,10.10
2022-11-13T08:38:28.178Z,10.26
2022-11-13T08:41:05.783Z,10.22
2022-11-13T08:43:34.450Z,10.21
2022-11-13T08:46:02.353Z,10.15
2022-11-13T08:48:29.732Z,10.19
2022-11-13T08:50:57.785Z,10.25
2022-11-13T08:53:25.909Z,10.22
2022-11-13T08:55:53.058Z,10.21
2022-11-13T08:58:20.079Z,10.18
2022-11-13T09:00:47.423Z,10.25
2022-11-13T09:03:14.830Z,10.35
2022-11-13T09:05:41.837Z,10.23
2022-11-13T09:08:16.229Z,10.30
2022-11-13T09:10:43.356Z,10.30
2022-11-13T09:13:11.866Z,10.30
2022-11-13T09:15:39.976Z,10.34
2022-11-13T09:18:07.285Z,10.38
2022-11-13T09:20:35.141Z,10.39
2022-11-13T09:23:07.097Z,10.41
2022-11-13T09:25:38.084Z,10.34
2022-11-13T09:28:07.199Z,10.32
2022-11-13T09:30:34.668Z,10.31
2022-11-13T09:33:01.983Z,10.48
2022-11-13T09:35:36.995Z,10.44
2022-11-13T09:38:11.280Z,10.58
2022-11-13T09:41:14.912Z,10.49
2022-11-13T09:44:00.320Z,10.59
2022-11-13T09:46:55.340Z,10.38
2022-11-13T09:49:38.362Z,10.53
2022-11-13T09:52:24.255Z,10.59
2022-11-13T09:54:51.616Z,10.73
2022-11-13T09:57:31.428Z,10.65
2022-11-13T10:00:27.077Z,10.55
2022-11-13T10:06:58.518Z,10.66
2022-11-13T10:10:30.432Z,10.69
2022-11-13T10:13:00.076Z,10.81
2022-11-13T10:15:28.101Z,10.84
2022-11-13T10:18:30.642Z,10.70
2022-11-13T10:21:17.910Z,10.68
2022-11-13T10:23:55.096Z,10.63
2022-11-13T10:26:29.380Z,10.71
2022-11-13T10:29:18.868Z,10.73
2022-11-13T10:31:51.031Z,10.77
2022-11-13T10:34:19.730Z,10.82
2022-11-13T10:37:38.862Z,10.85
2022-11-13T10:40:06.841Z,10.78
2022-11-13T10:42:41.284Z,10.89
2022-11-13T10:45:22.571Z,10.84
2022-11-13T10:48:04.102Z,10.82
2022-11-13T10:50:33.481Z,10.78
2022-11-13T10:53:00.567Z,10.91
2022-11-13T10:55:41.677Z,10.87
2022-11-13T10:58:18.900Z,10.74
2022-11-13T11:00:49.697Z,10.89
2022-11-13T11:03:23.565Z,10.87
2022-11-13T11:06:04.130Z,10.91
2022-11-13T11:08:36.054Z,10.83
2022-11-13T11:11:32.578Z,10.80
2022-11-13T11:14:28.316Z,10.78
2022-11-13T11:16:56.467Z,10.84
2022-11-13T11:19:30.909Z,10.87
2022-11-13T11:22:20.816Z,10.74
2022-11-13T11:25:03.974Z,10.88
2022-11-13T11:28:00.120Z,11.01
2022-11-13T11:30:39.995Z,10.93
2022-11-13T11:33:47.298Z,10.68
2022-11-13T11:36:46.699Z,10.85
2022-11-13T11:39:19.380Z,10.91
2022-11-13T11:42:33.545Z,11.06
2022-11-13T11:45:40.741Z,10.88
2022-11-13T11:48:24.238Z,10.93
2022-11-13T11:51:34.768Z,10.85
2022-11-13T11:54:54.193Z,11.01
2022-11-13T11:58:29.139Z,10.75
2022-11-13T12:01:40.986Z,10.73
2022-11-13T12:04:54.745Z,10.58
2022-11-13T12:07:58.582Z,10.95
2022-11-13T12:10:56.769Z,11.07
2022-11-13T12:13:33.724Z,11.29
2022-11-13T12:16:14.935Z,11.14
2022-11-13T12:19:10.960Z,11.43
2022-11-13T12:22:17.881Z,11.12
2022-11-13T12:25:11.635Z,11.38
2022-11-13T12:29:05.615Z,11.25
2022-11-13T12:32:18.912Z,11.39
2022-11-13T12:34:55.324Z,11.53
2022-11-13T12:38:29.236Z,11.61
2022-11-13T12:41:45.686Z,11.47
2022-11-13T12:44:27.601Z,11.54
2022-11-13T12:47:00.255Z,11.46
2022-11-13T12:49:35.751Z,11.26
2022-11-13T12:52:20.471Z,11.67
2022-11-13T12:54:47.807Z,11.65
2022-11-13T12:57:15.569Z,11.49
2022-11-13T13:00:00.579Z,11.59
2022-11-13T13:03:11.012Z,11.40
2022-11-13T13:06:22.900Z,11.47
2022-11-13T13:10:12.127Z,11.51
2022-11-13T13:13:23.982Z,11.48
2022-11-13T13:16:02.684Z,11.13
2022-11-13T13:18:38.345Z,11.17
2022-11-13T13:21:20.435Z,11.18
2022-11-13T13:24:00.687Z,11.11
2022-11-13T13:26:44.348Z,11.07
2022-11-13T13:29:30.663Z,11.06
2022-11-13T13:32:23.661Z,11.02
2022-11-13T13:35:24.319Z,11.13
2022-11-13T13:38:32.890Z,11.10
2022-11-13T13:41:58.508Z,10.92
2022-11-13T13:45:35.971Z,11.07
2022-11-13T13:48:08.837Z,10.92
2022-11-13T13:50:47.138Z,10.93
2022-11-13T13:53:26.589Z,10.75
2022-11-13T13:55:56.641Z,10.85
2022-11-13T13:58:35.763Z,10.81
2022-11-13T14:01:18.949Z,10.72
2022-11-13T14:03:47.143Z,10.55
2022-11-13T14:06:23.661Z,10.50
2022-11-13T14:08:50.880Z,10.46
2022-11-13T14:11:32.332Z,10.43
2022-11-13T14:14:26.024Z,10.33
2022-11-13T14:17:00.499Z,10.37
2022-11-13T14:19:28.215Z,10.28
2022-11-13T14:22:01.837Z,10.20
2022-11-13T14:24:43.641Z,10.27
2022-11-13T14:27:24.254Z,10.17
2022-11-13T14:29:59.927Z,10.00
2022-11-13T14:32:42.964Z,10.07
2022-11-13T14:35:24.369Z,10.00
2022-11-13T14:37:54.835Z,9.86
2022-11-13T14:40:32.350Z,9.84
2022-11-13T14:43:07.484Z,9.66
2022-11-13T14:45:34.786Z,9.74
2022-11-13T14:48:25.981Z,9.77
2022-11-13T14:51:06.895Z,9.61
2022-11-13T14:53:42.307Z,9.52
2022-11-13T14:56:12.077Z,9.48
2022-11-13T14:58:47.180Z,9.34
2022-11-13T15:01:22.418Z,9.28
2022-11-13T15:03:52.083Z,9.20
2022-11-13T15:06:36.999Z,9.15
2022-11-13T15:09:13.543Z,8.93
2022-11-13T15:11:40.806Z,8.94
2022-11-13T15:14:19.349Z,8.90
2022-11-13T15:16:48.742Z,8.83
2022-11-13T15:19:38.188Z,8.72
2022-11-13T15:22:26.447Z,8.67
2022-11-13T15:24:54.054Z,8.51
2022-11-13T15:27:21.041Z,8.54
2022-11-13T15:29:48.747Z,8.49
2022-11-13T15:32:16.276Z,8.43
2022-11-13T15:34:43.683Z,8.45
2022-11-13T15:37:16.781Z,8.36
2022-11-13T15:39:44.128Z,8.34
2022-11-13T15:42:27.474Z,8.18
2022-11-13T15:44:54.705Z,8.09
2022-11-13T15:47:28.832Z,8.06
2022-11-13T15:50:15.164Z,7.93
2022-11-13T15:52:50.537Z,7.79
2022-11-13T15:55:31.615Z,7.81
2022-11-13T15:57:59.165Z,7.88
2022-11-13T16:00:29.127Z,7.79
2022-11-13T16:02:57.652Z,7.86
2022-11-13T16:05:29.312Z,7.88
2022-11-13T16:07:57.607Z,7.86
2022-11-13T16:10:25.946Z,7.86
2022-11-13T16:12:53.625Z,7.71
2022-11-13T16:15:23.766Z,7.66
2022-11-13T16:17:55.568Z,7.72
2022-11-13T16:20:22.760Z,7.69
2022-11-13T16:22:50.669Z,7.66
2022-11-13T16:25:21.385Z,7.57
2022-11-13T16:27:48.947Z,7.58
2022-11-13T16:30:21.201Z,7.63
2022-11-13T16:32:48.946Z,7.66
2022-11-13T16:35:19.462Z,7.61
2022-11-13T16:37:46.665Z,7.58
2022-11-13T16:40:26.447Z,7.57
2022-11-13T16:42:54.169Z,7.57
2022-11-13T16:45:22.400Z,7.66
2022-11-13T16:47:50.766Z,7.51
2022-11-13T16:50:28.607Z,7.60
2022-11-13T16:52:56.558Z,7.58
2022-11-13T16:55:24.397Z,7.51
2022-11-13T17:01:01.559Z,7.29
2022-11-13T17:04:36.375Z,7.37
2022-11-13T17:06:43.971Z,7.31
2022-11-13T17:10:16.604Z,7.33
2022-11-13T17:13:40.949Z,7.18
2022-11-13T17:16:02.103Z,7.36
2022-11-13T17:18:34.352Z,7.48
2022-11-13T17:21:12.369Z,7.48
2022-11-13T17:24:11.735Z,7.59
2022-11-13T17:26:45.755Z,7.47
2022-11-13T17:29:19.252Z,7.40
2022-11-13T17:31:53.028Z,7.48
2022-11-13T17:34:20.071Z,7.48
2022-11-13T17:36:47.765Z,7.64
2022-11-13T17:39:15.417Z,7.58
2022-11-13T17:41:42.411Z,7.63
2022-11-13T17:44:12.233Z,7.65
2022-11-13T17:46:55.070Z,7.68
2022-11-13T17:49:22.587Z,7.52
2022-11-13T17:51:56.073Z,7.47
2022-11-13T17:54:25.172Z,7.54
2022-11-13T17:56:52.833Z,7.52
2022-11-13T17:59:22.987Z,7.49
2022-11-13T18:01:50.491Z,7.53
2022-11-13T18:04:17.501Z,7.48
2022-11-13T18:06:44.812Z,7.40
2022-11-13T18:09:12.554Z,7.50
2022-11-13T18:11:39.680Z,7.55
2022-11-13T18:14:06.956Z,7.61
2022-11-13T18:16:34.712Z,7.64
2022-11-13T18:19:06.964Z,7.39
2022-11-13T18:21:40.519Z,7.39
2022-11-13T18:24:19.327Z,7.61
2022-11-13T18:26:56.103Z,7.64
2022-11-13T18:29:38.489Z,7.65
2022-11-13T18:32:05.619Z,7.69
2022-11-13T18:34:32.688Z,7.78
2022-11-13T18:37:00.390Z,7.90
2022-11-13T18:39:27.910Z,7.81
2022-11-13T18:42:14.958Z,7.67
2022-11-13T18:44:45.306Z,7.44
2022-11-13T18:47:12.631Z,7.45
2022-11-13T18:49:40.119Z,7.39
2022-11-13T18:52:10.458Z,7.50
2022-11-13T18:54:38.066Z,7.64
2022-11-13T18:57:05.627Z,7.57
2022-11-13T18:59:33.197Z,7.46
2022-11-13T19:02:00.708Z,7.41
2022-11-13T19:04:27.951Z,7.36
2022-11-13T19:06:55.558Z,7.66
2022-11-13T19:09:22.979Z,7.40
2022-11-13T19:11:54.392Z,7.36
2022-11-13T19:14:21.787Z,7.30
2022-11-13T19:16:49.015Z,7.36
2022-11-13T19:19:21.401Z,7.35
2022-11-13T19:21:49.221Z,7.33
2022-11-13T19:24:17.309Z,7.38
2022-11-13T19:26:46.179Z,7.29
2022-11-13T19:29:27.325Z,7.43
2022-11-13T19:31:56.961Z,7.37
2022-11-13T19:34:26.084Z,7.43
2022-11-13T19:36:54.424Z,7.68
2022-11-13T19:39:29.214Z,7.32
2022-11-13T19:41:56.828Z,7.54
2022-11-13T19:44:27.769Z,7.51
2022-11-13T19:46:58.286Z,7.53
2022-11-13T19:49:43.899Z,7.39
2022-11-13T19:52:17.266Z,7.54
2022-11-13T19:54:45.050Z,7.66
2022-11-13T19:57:18.324Z,7.42
2022-11-13T19:59:45.765Z,7.07
2022-11-13T20:02:14.229Z,7.12
2022-11-13T20:04:47.390Z,7.15
2022-11-13T20:07:16.076Z,7.13
2022-11-13T20:09:43.557Z,7.09
2022-11-13T20:12:10.879Z,7.12
2022-11-13T20:14:38.696Z,7.16
2022-11-13T20:17:12.446Z,7.26
2022-11-13T20:19:39.729Z,7.13
2022-11-13T20:22:06.846Z,7.13
2022-11-13T20:24:37.197Z,7.23
2022-11-13T20:27:13.480Z,7.03
2022-11-13T20:29:43.629Z,7.18
2022-11-13T20:32:10.878Z,7.30
2022-11-13T20:34:47.571Z,7.25
2022-11-13T20:37:15.023Z,7.26
2022-11-13T20:39:42.434Z,7.33
2022-11-13T20:42:14.812Z,7.27
2022-11-13T20:44:41.815Z,7.29
2022-11-13T20:47:12.099Z,7.36
2022-11-13T20:49:39.756Z,7.24
2022-11-13T20:52:12.652Z,7.19
2022-11-13T20:54:42.945Z,7.24
2022-11-13T20:57:13.548Z,7.40
2022-11-13T20:59:43.181Z,7.41
2022-11-13T21:02:12.783Z,7.31
2022-11-13T21:07:31.653Z,7.35
2022-11-13T21:09:58.946Z,7.29
2022-11-13T21:12:26.683Z,7.35
2022-11-13T21:14:53.699Z,7.12
2022-11-13T21:17:20.671Z,7.16
2022-11-13T21:19:48.016Z,7.03
2022-11-13T21:25:33.615Z,6.95
2022-11-13T21:28:43.492Z,6.87
2022-11-13T21:31:34.437Z,6.97
2022-11-13T21:34:01.628Z,6.91
2022-11-13T21:36:33.305Z,7.02
2022-11-13T21:39:06.599Z,6.89
2022-11-13T21:41:39.685Z,6.93
2022-11-13T21:44:10.802Z,6.94
2022-11-13T21:46:45.599Z,6.97
2022-11-13T21:49:17.978Z,6.81
2022-11-13T21:51:47.725Z,6.78
2022-11-13T21:54:15.412Z,6.89
2022-11-13T21:56:51.910Z,6.75
2022-11-13T21:59:19.071Z,6.78
2022-11-13T22:01:58.887Z,6.83
2022-11-13T22:04:26.085Z,6.83
2022-11-13T22:06:54.597Z,6.84
2022-11-13T22:09:40.998Z,6.91
2022-11-13T22:12:12.230Z,6.92
2022-11-13T22:14:44.265Z,6.96
2022-11-13T22:17:25.303Z,7.05
2022-11-13T22:20:05.216Z,7.03
2022-11-13T22:22:52.522Z,6.92
2022-11-13T22:25:34.624Z,6.98
2022-11-13T22:28:01.740Z,6.88
2022-11-13T22:30:48.978Z,6.89
2022-11-13T22:33:52.475Z,6.94
2022-11-13T22:36:34.192Z,6.94
2022-11-13T22:39:08.056Z,6.88
2022-11-13T22:41:36.722Z,6.91
2022-11-13T22:44:28.563Z,6.95
2022-11-13T22:47:02.167Z,6.97
2022-11-13T22:49:33.080Z,6.95
2022-11-13T22:52:21.847Z,6.89
2022-11-13T22:54:54.144Z,6.86
2022-11-13T22:57:36.977Z,6.83
2022-11-13T23:00:21.282Z,6.96
2022-11-13T23:02:48.435Z,6.86
2022-11-13T23:05:18.878Z,6.90
2022-11-13T23:07:55.113Z,6.89
2022-11-13T23:10:25.330Z,6.96
2022-11-13T23:12:56.088Z,6.96
2022-11-13T23:15:36.262Z,6.92
2022-11-13T23:18:05.874Z,7.04
2022-11-13T23:20:56.050Z,6.95
2022-11-13T23:23:23.157Z,6.99
2022-11-13T23:25:53.306Z,6.96
2022-11-13T23:28:30.203Z,6.96
2022-11-13T23:30:57.744Z,6.93
2022-11-13T23:36:18.118Z,6.94
2022-11-13T23:38:48.401Z,6.86
2022-11-13T23:41:15.729Z,6.93
2022-11-13T23:46:30.114Z,7.00
2022-11-13T23:49:00.637Z,6.90
2022-11-13T23:51:33.701Z,6.88
2022-11-13T23:54:06.321Z,7.01
2022-11-13T23:56:42.728Z,7.00
2022-11-13T23:59:13.835Z,6.93
